Time;durP1;ratioP1;P1;durP2;ratioP2;P2;SDS_P1;SDS_P2;PMS_P1;PMS_P2;Temp;Humidity;BMP_temperature;BMP_pressure;BME280_temperature;BME280_humidity;BME280_pressure;Samples;Min_cycle;Max_cycle;Signal;HPM_P1;HPM_P2
2023/10/04 00:00:20;;;;;;;10.32;9.10;;;;;;;21.94;40.48;95792.03;6010584;28;109483;-61
2023/10/04 00:03:26;;;;;;;9.80;8.90;;;;;;;21.98;39.65;95785.06;6016817;28;108941;-61
2023/10/04 00:06:31;;;;;;;10.80;9.70;;;;;;;21.94;40.21;95789.38;6006824;28;109915;-61
2023/10/04 00:09:34;;;;;;;10.18;8.75;;;;;;;21.95;39.77;95780.31;6015484;28;109097;-61
2023/10/04 00:12:38;;;;;;;10.00;9.05;;;;;;;21.91;40.31;95783.84;6010448;29;108997;-61
2023/10/04 00:15:41;;;;;;;10.15;9.15;;;;;;;21.88;40.33;95784.41;6012618;28;109034;-60
2023/10/04 00:18:46;;;;;;;10.53;9.43;;;;;;;21.82;40.77;95781.00;6011376;28;109314;-60
2023/10/04 00:21:50;;;;;;;9.65;8.70;;;;;;;21.79;40.43;95782.34;6022719;28;108926;-61
2023/10/04 00:24:53;;;;;;;10.05;9.07;;;;;;;21.76;40.97;95780.25;6016709;28;108962;-61
2023/10/04 00:27:57;;;;;;;10.43;9.32;;;;;;;21.79;40.76;95777.00;6006452;29;108843;-61
2023/10/04 00:31:00;;;;;;;10.20;9.20;;;;;;;21.79;40.61;95778.88;6015431;28;108902;-61
2023/10/04 00:34:07;;;;;;;9.68;8.77;;;;;;;21.80;40.13;95777.81;6016130;28;109151;-60
2023/10/04 00:37:10;;;;;;;9.30;8.40;;;;;;;21.79;40.37;95781.53;6015751;29;109067;-60
2023/10/04 00:40:18;;;;;;;10.20;9.30;;;;;;;21.74;40.33;95784.28;6006728;28;109244;-60
2023/10/04 00:43:21;;;;;;;10.40;9.40;;;;;;;21.72;40.54;95776.56;6018174;28;109060;-60
2023/10/04 00:46:25;;;;;;;11.53;9.10;;;;;;;21.76;40.48;95782.13;6016718;28;109007;-61
2023/10/04 00:49:31;;;;;;;9.10;8.20;;;;;;;21.77;40.47;95781.03;6012690;29;108994;-59
2023/10/04 00:52:35;;;;;;;8.60;7.70;;;;;;;21.75;40.33;95776.00;6010286;28;108936;-60
2023/10/04 00:55:40;;;;;;;10.07;9.07;;;;;;;21.77;39.83;95765.84;6014587;28;109905;-60
2023/10/04 00:58:45;;;;;;;10.50;9.40;;;;;;;21.76;39.86;95784.78;6015624;28;109103;-60
2023/10/04 01:01:49;;;;;;;9.30;8.40;;;;;;;21.68;40.57;95778.22;6005343;28;109282;-60
2023/10/04 01:04:54;;;;;;;10.77;9.63;;;;;;;21.64;40.15;95776.41;6015642;28;109034;-60
2023/10/04 01:07:58;;;;;;;10.48;9.38;;;;;;;21.67;39.86;95778.47;6011996;29;108994;-58
2023/10/04 01:11:02;;;;;;;10.20;9.20;;;;;;;21.65;40.24;95777.97;6015367;28;109029;-58
2023/10/04 01:14:18;;;;;;;9.70;8.70;;;;;;;21.61;40.05;95775.09;6004883;28;108933;-58
2023/10/04 01:17:22;;;;;;;9.50;8.50;;;;;;;21.64;40.07;95781.72;6015423;28;108955;-59
2023/10/04 01:20:30;;;;;;;9.77;8.80;;;;;;;21.65;39.93;95776.09;6015687;28;108894;-57
2023/10/04 01:23:35;;;;;;;9.88;8.88;;;;;;;21.67;39.78;95779.28;6010181;28;109014;-57
2023/10/04 01:26:41;;;;;;;9.80;8.25;;;;;;;21.67;39.72;95781.16;6010118;28;109124;-57
2023/10/04 01:29:45;;;;;;;8.80;7.90;;;;;;;21.66;39.78;95784.88;6015767;28;108874;-56
2023/10/04 01:32:50;;;;;;;8.98;8.07;;;;;;;21.69;39.79;95787.00;6016157;28;108922;-56
2023/10/04 01:35:54;;;;;;;9.52;8.57;;;;;;;21.66;39.60;95777.69;6004047;28;109226;-56
2023/10/04 01:38:59;;;;;;;12.00;8.90;;;;;;;21.68;39.63;95782.75;6015234;28;109246;-57
2023/10/04 01:42:02;;;;;;;9.40;8.50;;;;;;;21.65;39.62;95783.31;6007875;28;108947;-56
2023/10/04 01:45:09;;;;;;;9.32;8.40;;;;;;;21.62;39.99;95782.00;6014566;28;108994;-56
2023/10/04 01:48:15;;;;;;;9.02;8.13;;;;;;;21.61;40.00;95779.63;6009445;28;108966;-56
2023/10/04 01:51:18;;;;;;;10.27;9.10;;;;;;;21.61;39.79;95791.09;6014492;28;110018;-56
2023/10/04 01:54:23;;;;;;;9.10;8.20;;;;;;;21.60;39.52;95778.06;6015775;28;108929;-56
2023/10/04 01:57:26;;;;;;;9.97;8.90;;;;;;;21.59;39.33;95784.47;6014831;28;108878;-56
2023/10/04 02:00:29;;;;;;;9.10;8.20;;;;;;;21.59;39.38;95781.78;6004197;28;109445;-56
2023/10/04 02:03:34;;;;;;;9.85;8.85;;;;;;;21.57;39.93;95786.63;6014644;28;108899;-56
2023/10/04 02:06:37;;;;;;;9.65;8.48;;;;;;;21.59;39.80;95779.13;6015693;28;108954;-56
2023/10/04 02:09:42;;;;;;;9.10;8.20;;;;;;;21.56;39.47;95783.16;6004434;28;109091;-57
2023/10/04 02:12:46;;;;;;;8.23;7.43;;;;;;;21.54;39.77;95780.00;6013952;28;109107;-57
2023/10/04 02:15:51;;;;;;;9.63;8.55;;;;;;;21.55;39.62;95783.44;5995494;29;108917;-56
2023/10/04 02:18:56;;;;;;;8.60;7.80;;;;;;;21.52;39.53;95788.25;6013330;28;109268;-57
2023/10/04 02:22:00;;;;;;;9.27;8.38;;;;;;;21.54;39.48;95789.84;6003563;28;109604;-56
2023/10/04 02:25:06;;;;;;;10.18;9.23;;;;;;;21.51;39.39;95792.00;6016067;28;109180;-56
2023/10/04 02:28:11;;;;;;;9.13;8.20;;;;;;;21.51;39.33;95792.00;6016229;28;108924;-57
2023/10/04 02:31:14;;;;;;;9.27;8.30;;;;;;;21.47;39.24;95785.63;6013925;28;108902;-56
2023/10/04 02:34:19;;;;;;;8.95;8.15;;;;;;;21.44;39.59;95780.09;6004536;28;109528;-57
2023/10/04 02:37:23;;;;;;;9.53;8.60;;;;;;;21.46;39.55;95780.59;6014323;28;109269;-56
2023/10/04 02:40:32;;;;;;;8.73;7.93;;;;;;;21.45;39.62;95787.78;6014513;29;109168;-56
2023/10/04 02:43:36;;;;;;;9.70;8.70;;;;;;;21.42;39.34;95784.91;6007905;28;109260;-57
2023/10/04 02:46:44;;;;;;;9.50;8.48;;;;;;;21.46;39.22;95791.25;6000964;28;109657;-56
2023/10/04 02:49:47;;;;;;;11.10;10.00;;;;;;;21.46;39.34;95793.91;6013750;28;108939;-56
2023/10/04 02:52:51;;;;;;;10.40;9.40;;;;;;;21.44;39.26;95794.19;6016813;29;108931;-57
2023/10/04 02:55:57;;;;;;;11.50;10.50;;;;;;;21.41;39.60;95791.31;6007346;28;108950;-56
2023/10/04 02:59:01;;;;;;;11.00;10.00;;;;;;;21.37;39.63;95783.09;6017717;29;110093;-57
2023/10/04 03:02:04;;;;;;;10.07;9.07;;;;;;;21.37;39.54;95779.66;6017769;28;109170;-57
2023/10/04 03:05:09;;;;;;;10.20;9.30;;;;;;;21.35;39.56;95787.13;6017617;28;109190;-57
2023/10/04 03:08:12;;;;;;;10.25;9.25;;;;;;;21.34;39.34;95796.97;6007010;28;109256;-58
2023/10/04 03:11:19;;;;;;;14.50;13.10;;;;;;;21.32;39.59;95785.00;6018818;28;109059;-58
2023/10/04 03:14:24;;;;;;;17.40;15.60;;;;;;;21.27;39.69;95780.53;6018936;29;108772;-58
2023/10/04 03:17:28;;;;;;;18.20;16.50;;;;;;;21.27;39.41;95788.50;6009789;28;109291;-58
2023/10/04 03:20:31;;;;;;;15.30;13.80;;;;;;;21.24;39.32;95785.63;6015620;28;108964;-58
2023/10/04 03:23:35;;;;;;;17.70;16.20;;;;;;;21.35;39.41;95792.44;6018768;28;109258;-60
2023/10/04 03:26:40;;;;;;;20.23;18.13;;;;;;;21.66;39.34;95785.69;6018820;28;109269;-60
2023/10/04 03:29:43;;;;;;;24.50;22.27;;;;;;;21.83;39.23;95792.44;6007553;28;109251;-61
2023/10/04 03:32:52;;;;;;;23.10;21.10;;;;;;;21.89;39.53;95791.31;6016978;28;109362;-60
2023/10/04 03:35:58;;;;;;;24.80;22.70;;;;;;;21.96;39.44;95803.22;6017982;28;108850;-60
2023/10/04 03:39:03;;;;;;;21.52;19.65;;;;;;;21.95;39.73;95798.97;6013395;28;110540;-60
2023/10/04 03:42:11;;;;;;;17.52;15.88;;;;;;;21.91;39.38;95802.50;6007057;28;110819;-60
2023/10/04 03:45:17;;;;;;;14.57;13.13;;;;;;;21.86;39.70;95798.03;6017193;28;109091;-61
2023/10/04 03:48:23;;;;;;;14.90;13.50;;;;;;;21.84;39.09;95800.16;6016757;28;110705;-60
2023/10/04 03:51:26;;;;;;;13.10;11.80;;;;;;;21.80;39.50;95791.91;6013933;29;108780;-60
2023/10/04 03:54:30;;;;;;;12.85;11.70;;;;;;;21.83;38.94;95789.78;6015102;28;109519;-60
2023/10/04 03:57:35;;;;;;;12.93;11.63;;;;;;;21.83;38.84;95793.25;6029519;28;109168;-60
2023/10/04 04:00:39;;;;;;;13.35;11.98;;;;;;;21.84;39.33;95794.81;6017697;29;108974;-58
2023/10/04 04:03:44;;;;;;;15.82;12.40;;;;;;;21.84;38.29;95792.16;6004384;28;109878;-60
2023/10/04 04:06:49;;;;;;;13.27;10.88;;;;;;;21.83;39.53;95790.56;6017603;28;109125;-60
2023/10/04 04:09:53;;;;;;;12.93;10.98;;;;;;;21.87;38.89;95794.28;6018601;29;108831;-59
2023/10/04 04:13:01;;;;;;;12.60;10.68;;;;;;;21.91;38.93;95795.28;6017765;29;109059;-61
2023/10/04 04:16:11;;;;;;;13.30;10.40;;;;;;;21.97;39.40;95788.81;6008153;28;108866;-60
2023/10/04 04:19:15;;;;;;;14.98;10.43;;;;;;;21.97;39.83;95793.34;6004976;29;109182;-59
2023/10/04 04:22:23;;;;;;;13.47;10.40;;;;;;;21.30;39.74;95789.81;6011500;28;109037;-57
2023/10/04 04:25:28;;;;;;;11.40;10.20;;;;;;;21.18;39.74;95793.69;6015441;28;108914;-57
2023/10/04 04:28:35;;;;;;;12.60;10.40;;;;;;;21.27;39.77;95790.38;6011043;28;109419;-56
2023/10/04 04:31:40;;;;;;;10.75;9.52;;;;;;;21.30;39.67;95789.81;6017477;29;108883;-56
2023/10/04 04:34:44;;;;;;;11.07;9.70;;;;;;;21.30;39.47;95789.81;6016299;28;109040;-56
2023/10/04 04:37:48;;;;;;;11.10;10.00;;;;;;;21.28;39.30;95792.75;6008482;28;108906;-57
2023/10/04 04:40:55;;;;;;;11.50;10.30;;;;;;;21.26;39.23;95786.94;6017734;28;109000;-57
2023/10/04 04:44:07;;;;;;;13.32;10.90;;;;;;;21.27;39.47;95791.19;6017218;29;108792;-57
2023/10/04 04:47:10;;;;;;;11.50;10.30;;;;;;;21.28;39.18;95798.09;6017270;28;108781;-57
2023/10/04 04:50:16;;;;;;;13.25;10.90;;;;;;;21.29;38.95;95785.56;6005677;28;108974;-57
2023/10/04 04:53:22;;;;;;;11.38;10.18;;;;;;;21.30;39.19;95789.81;6016546;28;108925;-56
2023/10/04 04:56:25;;;;;;;12.60;10.60;;;;;;;21.34;39.03;95789.00;6017063;28;108776;-58
2023/10/04 04:59:31;;;;;;;12.77;10.63;;;;;;;21.33;39.00;95792.69;6016248;28;109337;-58
2023/10/04 05:02:34;;;;;;;16.85;15.15;;;;;;;21.31;39.55;95794.84;6010051;29;109005;-56
2023/10/04 05:05:38;;;;;;;24.85;22.42;;;;;;;21.32;39.48;95801.78;6016897;28;108953;-56
2023/10/04 05:08:41;;;;;;;18.00;16.10;;;;;;;21.32;39.35;95806.31;6016696;28;109005;-56
2023/10/04 05:11:45;;;;;;;17.70;15.80;;;;;;;21.30;38.86;95803.13;6006272;29;108891;-56
2023/10/04 05:14:50;;;;;;;19.33;15.03;;;;;;;21.28;39.25;95806.06;6016413;28;108903;-57
2023/10/04 05:17:53;;;;;;;17.48;14.13;;;;;;;21.31;39.29;95805.50;6016400;28;108912;-56
2023/10/04 05:20:56;;;;;;;16.30;13.57;;;;;;;21.32;39.09;95800.97;6015925;29;108860;-56
2023/10/04 05:23:59;;;;;;;18.63;12.80;;;;;;;21.33;39.28;95813.22;6005835;28;109324;-56
2023/10/04 05:27:03;;;;;;;17.07;13.30;;;;;;;21.29;39.49;95812.97;6016537;28;108903;-56
2023/10/04 05:30:13;;;;;;;15.43;13.70;;;;;;;21.27;39.20;95804.50;6015828;29;108875;-56
2023/10/04 05:33:18;;;;;;;15.70;12.60;;;;;;;21.36;39.17;95808.13;6001076;29;109163;-58
2023/10/04 05:36:22;;;;;;;16.10;12.20;;;;;;;21.33;39.26;95818.53;6010296;28;109365;-56
2023/10/04 05:39:25;;;;;;;14.33;11.53;;;;;;;21.36;38.86;95821.44;6016019;28;108960;-56
2023/10/04 05:42:28;;;;;;;13.63;11.38;;;;;;;21.37;39.09;95823.03;6016432;29;108917;-56
2023/10/04 05:45:34;;;;;;;14.55;12.00;;;;;;;21.48;39.20;95826.38;6005333;28;109057;-57
2023/10/04 05:48:37;;;;;;;21.13;19.05;;;;;;;21.61;39.65;95827.56;6016008;29;108980;-57
2023/10/04 05:51:40;;;;;;;19.95;17.95;;;;;;;21.69;39.57;95826.97;6015504;29;108925;-56
2023/10/04 05:54:43;;;;;;;21.90;17.50;;;;;;;21.62;39.55;95829.94;6015935;28;108954;-57
2023/10/04 05:57:47;;;;;;;16.70;15.07;;;;;;;21.57;39.61;95823.91;6005087;28;109342;-57
2023/10/04 06:00:52;;;;;;;17.60;14.57;;;;;;;21.59;39.34;95833.19;6015857;28;109064;-57
2023/10/04 06:03:57;;;;;;;16.00;13.20;;;;;;;21.61;39.47;95839.03;6015901;29;108998;-57
2023/10/04 06:07:00;;;;;;;15.60;13.32;;;;;;;21.67;39.06;95840.53;6015795;29;108900;-57
2023/10/04 06:10:04;;;;;;;15.50;12.60;;;;;;;21.71;39.05;95838.94;6004918;29;109166;-57
2023/10/04 06:13:11;;;;;;;13.40;11.40;;;;;;;21.76;39.50;95841.53;6016052;28;108863;-56
2023/10/04 06:16:20;;;;;;;14.23;11.60;;;;;;;21.85;39.15;95839.06;6015479;28;108960;-57
2023/10/04 06:19:25;;;;;;;13.15;11.48;;;;;;;21.95;39.13;95841.59;6006438;28;108989;-59
2023/10/04 06:22:33;;;;;;;13.57;10.70;;;;;;;22.04;38.85;95844.44;6014368;29;109148;-56
2023/10/04 06:25:41;;;;;;;12.93;11.10;;;;;;;22.14;38.62;95841.63;6015480;28;108956;-56
2023/10/04 06:28:46;;;;;;;12.33;10.67;;;;;;;22.24;38.85;95841.50;6018825;28;108884;-61
2023/10/04 06:31:50;;;;;;;14.63;11.20;;;;;;;22.35;38.71;95844.84;6008269;28;110834;-56
2023/10/04 06:34:53;;;;;;;12.40;10.40;;;;;;;22.44;38.60;95840.44;6010294;28;108895;-56
2023/10/04 06:37:59;;;;;;;11.40;10.30;;;;;;;22.53;38.45;95848.59;6003099;29;108984;-57
2023/10/04 06:41:03;;;;;;;11.27;10.15;;;;;;;22.62;38.24;95850.34;6019475;29;108962;-56
2023/10/04 06:44:08;;;;;;;12.40;11.20;;;;;;;22.70;38.33;95846.25;6008927;28;110561;-57
2023/10/04 06:47:14;;;;;;;14.73;13.30;;;;;;;22.77;38.39;95844.00;6019135;28;108974;-57
2023/10/04 06:50:19;;;;;;;14.43;13.07;;;;;;;22.85;38.24;95854.03;6019489;29;108812;-57
2023/10/04 06:53:23;;;;;;;14.90;13.40;;;;;;;22.94;38.20;95851.47;6012437;28;108957;-57
2023/10/04 06:56:27;;;;;;;15.18;13.57;;;;;;;23.01;38.13;95855.34;6015170;28;108960;-57
2023/10/04 06:59:31;;;;;;;14.73;13.20;;;;;;;23.07;37.63;95861.41;6019343;29;108981;-56
2023/10/04 07:02:36;;;;;;;15.93;14.40;;;;;;;23.11;37.51;95865.06;6018946;28;108917;-56
2023/10/04 07:05:41;;;;;;;15.32;13.82;;;;;;;23.17;37.94;95863.91;6008866;28;109000;-56
2023/10/04 07:08:44;;;;;;;14.83;13.33;;;;;;;23.24;37.96;95858.19;6018765;29;109335;-57
2023/10/04 07:11:48;;;;;;;16.02;14.48;;;;;;;23.25;37.72;95860.56;6018868;28;108963;-56
2023/10/04 07:14:51;;;;;;;15.80;14.20;;;;;;;23.28;37.62;95862.66;6018847;28;108933;-56
2023/10/04 07:17:56;;;;;;;14.57;13.07;;;;;;;23.28;37.65;95851.97;6008253;28;108927;-56
2023/10/04 07:21:00;;;;;;;15.23;13.73;;;;;;;23.39;37.12;95851.84;6018883;29;108937;-56
2023/10/04 07:24:03;;;;;;;15.20;13.60;;;;;;;23.40;37.42;95851.53;6017860;29;108894;-56
2023/10/04 07:27:06;;;;;;;15.15;13.65;;;;;;;23.45;37.61;95845.31;6014054;29;108923;-56
2023/10/04 07:30:12;;;;;;;15.97;13.70;;;;;;;23.56;37.33;95849.38;6013236;28;108920;-56
2023/10/04 07:33:17;;;;;;;16.25;14.55;;;;;;;23.64;37.24;95831.88;6018557;29;108906;-57
2023/10/04 07:36:21;;;;;;;16.10;14.50;;;;;;;23.73;36.91;95838.13;6018286;28;108982;-56
2023/10/04 07:39:25;;;;;;;17.90;16.00;;;;;;;23.77;37.35;95834.56;6006484;28;109168;-56
2023/10/04 07:42:30;;;;;;;17.42;15.73;;;;;;;23.82;36.66;95837.13;6018536;29;108833;-56
2023/10/04 07:45:33;;;;;;;18.00;16.30;;;;;;;23.83;37.55;95833.34;5995658;29;109117;-57
2023/10/04 07:48:38;;;;;;;17.10;15.40;;;;;;;23.88;37.34;95837.84;6003360;29;108892;-56
2023/10/04 07:51:42;;;;;;;17.80;16.10;;;;;;;23.93;37.44;95831.59;6007553;29;109267;-56
2023/10/04 07:54:45;;;;;;;16.40;14.80;;;;;;;24.01;37.51;95817.53;6016976;28;108951;-56
2023/10/04 07:57:50;;;;;;;17.37;15.57;;;;;;;23.99;37.61;95825.81;6017848;29;109284;-57
2023/10/04 08:00:54;;;;;;;16.80;15.20;;;;;;;23.94;37.63;95823.25;6018194;29;109087;-56
2023/10/04 08:03:59;;;;;;;16.83;15.13;;;;;;;23.95;37.66;95832.88;6008237;28;108998;-57
2023/10/04 08:07:02;;;;;;;17.50;15.70;;;;;;;23.96;37.60;95825.63;6017880;28;109043;-56
2023/10/04 08:10:08;;;;;;;16.42;14.82;;;;;;;23.96;37.69;95826.44;6018201;29;108934;-61
2023/10/04 08:13:11;;;;;;;17.77;15.98;;;;;;;23.99;37.75;95822.38;6007972;28;108943;-60
2023/10/04 08:16:14;;;;;;;17.80;16.02;;;;;;;24.00;37.12;95810.59;6018231;29;109027;-61
2023/10/04 08:19:20;;;;;;;18.60;16.80;;;;;;;23.88;37.66;95813.78;6017457;28;108954;-61
2023/10/04 08:22:24;;;;;;;19.98;17.40;;;;;;;23.81;38.09;95818.72;6017862;28;109481;-61
2023/10/04 08:25:28;;;;;;;21.42;19.13;;;;;;;23.94;37.69;95811.78;6006072;29;109256;-61
2023/10/04 08:28:32;;;;;;;21.50;19.45;;;;;;;24.03;37.59;95810.81;6017548;28;109087;-61
2023/10/04 08:31:36;;;;;;;20.90;18.90;;;;;;;24.13;37.57;95809.81;6017683;28;109147;-61
2023/10/04 08:34:42;;;;;;;20.50;18.50;;;;;;;24.15;37.67;95807.63;6016624;29;109473;-62
2023/10/04 08:37:45;;;;;;;21.00;18.93;;;;;;;24.22;37.25;95800.00;6007211;28;109044;-62
2023/10/04 08:40:48;;;;;;;20.07;18.17;;;;;;;24.23;37.20;95806.91;6017655;29;109299;-62
2023/10/04 08:43:52;;;;;;;20.20;18.20;;;;;;;24.17;37.31;95806.22;6017595;29;108875;-62
2023/10/04 08:46:57;;;;;;;19.10;17.20;;;;;;;24.19;37.23;95801.38;6012688;29;108878;-60
2023/10/04 08:50:09;;;;;;;19.10;17.20;;;;;;;24.18;37.20;95796.31;6011807;29;109385;-61
2023/10/04 08:53:19;;;;;;;17.75;15.95;;;;;;;24.21;37.36;95795.75;6017068;28;108994;-61
2023/10/04 08:56:24;;;;;;;16.80;15.20;;;;;;;24.22;37.06;95789.28;6016395;28;108891;-61
2023/10/04 08:59:28;;;;;;;17.90;16.17;;;;;;;24.16;37.26;95787.81;6007450;28;108917;-61
2023/10/04 09:02:32;;;;;;;16.70;15.07;;;;;;;24.21;36.93;95795.75;6017117;29;108880;-61
2023/10/04 09:05:38;;;;;;;16.90;15.20;;;;;;;24.24;36.94;95797.81;6017133;29;109035;-61
2023/10/04 09:08:41;;;;;;;16.85;15.25;;;;;;;24.26;36.86;95787.59;6016854;29;108927;-61
2023/10/04 09:11:45;;;;;;;16.80;15.10;;;;;;;24.26;36.82;95792.16;6005844;28;108915;-61
2023/10/04 09:14:49;;;;;;;16.38;14.77;;;;;;;24.28;36.86;95787.28;6016686;29;109007;-63
2023/10/04 09:17:56;;;;;;;17.27;15.13;;;;;;;24.32;36.87;95782.91;6017006;29;109669;-62
2023/10/04 09:21:15;;;;;;;17.50;15.80;;;;;;;24.36;36.49;95787.38;6011237;28;109065;-60
2023/10/04 09:24:18;;;;;;;16.42;14.82;;;;;;;24.36;36.75;95789.22;6015326;28;108932;-61
2023/10/04 09:27:21;;;;;;;16.00;14.40;;;;;;;24.36;37.06;95779.34;6016195;29;109027;-61
2023/10/04 09:30:25;;;;;;;16.23;14.63;;;;;;;24.37;36.85;95782.81;6016798;28;108935;-61
2023/10/04 09:33:32;;;;;;;17.30;15.60;;;;;;;24.39;37.09;95781.41;6005032;28;109005;-60
2023/10/04 09:36:37;;;;;;;17.02;15.32;;;;;;;24.39;36.91;95775.28;5993284;29;108958;-61
2023/10/04 09:39:41;;;;;;;15.70;14.20;;;;;;;24.44;36.91;95778.63;6004239;29;109003;-61
2023/10/04 09:42:49;;;;;;;17.60;15.80;;;;;;;24.43;37.14;95776.25;6016535;28;109100;-61
2023/10/04 09:45:57;;;;;;;16.30;14.60;;;;;;;24.42;36.79;95778.13;6005635;28;109832;-62
2023/10/04 09:49:06;;;;;;;16.27;14.77;;;;;;;24.45;36.89;95774.84;6016710;29;109391;-62
2023/10/04 09:52:12;;;;;;;16.23;14.70;;;;;;;24.45;37.25;95774.84;6016534;28;108953;-62
2023/10/04 09:55:16;;;;;;;16.30;14.70;;;;;;;24.42;36.88;95762.09;6010350;29;108947;-60
2023/10/04 09:58:25;;;;;;;16.33;14.82;;;;;;;24.44;37.04;95762.56;6013191;29;109041;-62
2023/10/04 10:01:30;;;;;;;16.67;15.07;;;;;;;24.45;37.13;95766.03;6016837;29;108947;-61
2023/10/04 10:04:41;;;;;;;16.55;15.05;;;;;;;24.40;37.19;95758.13;6020682;28;108796;-61
2023/10/04 10:07:48;;;;;;;15.57;14.07;;;;;;;24.45;37.07;95761.47;6009461;29;108765;-61
2023/10/04 10:10:53;;;;;;;16.90;15.35;;;;;;;24.43;37.11;95760.19;6020108;28;108797;-61
2023/10/04 10:13:57;;;;;;;16.25;14.75;;;;;;;24.43;37.29;95744.94;6020254;29;108954;-61
2023/10/04 10:17:01;;;;;;;16.13;14.38;;;;;;;24.40;36.90;95740.19;6020114;29;108962;-60
2023/10/04 10:20:09;;;;;;;17.50;15.90;;;;;;;24.39;37.20;95737.81;6009550;28;108970;-61
2023/10/04 10:23:14;;;;;;;17.50;15.80;;;;;;;24.40;37.25;95736.72;6019938;29;108867;-61
2023/10/04 10:26:19;;;;;;;16.48;14.98;;;;;;;24.38;37.26;95733.56;6019997;28;109080;-61
2023/10/04 10:29:29;;;;;;;17.00;15.30;;;;;;;24.36;37.63;95717.81;6011846;28;108942;-60
2023/10/04 10:32:32;;;;;;;17.25;15.65;;;;;;;24.35;37.44;95713.53;6019202;29;108806;-57
2023/10/04 10:35:52;;;;;;;17.17;15.57;;;;;;;24.34;37.40;95709.28;6018901;29;109091;-57
2023/10/04 10:38:56;;;;;;;17.00;15.40;;;;;;;24.29;37.64;95705.94;6019134;28;109008;-56
2023/10/04 10:42:01;;;;;;;16.40;14.90;;;;;;;24.30;37.48;95702.97;6009450;28;110548;-56
2023/10/04 10:45:27;;;;;;;16.70;15.10;;;;;;;24.28;37.65;95702.47;6019058;28;108906;-56
2023/10/04 10:48:33;;;;;;;17.10;15.60;;;;;;;24.26;37.75;95693.97;6019338;29;108949;-57
2023/10/04 10:51:44;;;;;;;16.93;15.43;;;;;;;24.24;37.78;95682.78;6014590;28;109174;-56
2023/10/04 10:54:49;;;;;;;16.30;14.80;;;;;;;24.24;37.62;95679.34;6013267;28;109357;-56
2023/10/04 10:57:52;;;;;;;17.00;15.40;;;;;;;24.22;37.86;95678.84;6018565;28;108899;-58
2023/10/04 11:00:57;;;;;;;16.38;14.98;;;;;;;24.20;38.07;95681.81;6018176;28;108996;-56
2023/10/04 11:04:00;;;;;;;17.50;15.90;;;;;;;24.17;38.00;95677.06;6007954;28;108915;-57
2023/10/04 11:07:06;;;;;;;16.47;14.97;;;;;;;24.14;38.01;95667.75;6019077;29;109080;-57
2023/10/04 11:10:13;;;;;;;17.50;15.70;;;;;;;24.07;37.90;95669.28;6018943;28;109190;-57
2023/10/04 11:13:18;;;;;;;16.63;15.13;;;;;;;24.10;37.78;95674.81;6018971;29;108985;-57
2023/10/04 11:16:21;;;;;;;15.50;14.10;;;;;;;24.10;37.94;95672.16;6007230;28;108924;-58
2023/10/04 11:19:25;;;;;;;17.10;15.60;;;;;;;24.09;37.95;95659.09;6018715;29;108906;-57
2023/10/04 11:22:29;;;;;;;16.77;15.18;;;;;;;24.06;38.16;95665.03;6019050;29;108882;-57
2023/10/04 11:25:34;;;;;;;16.23;14.77;;;;;;;24.06;38.17;95657.03;6016794;29;108970;-58
2023/10/04 11:28:37;;;;;;;16.80;15.30;;;;;;;24.02;38.23;95664.03;6011300;28;108940;-55
2023/10/04 11:31:41;;;;;;;16.80;15.23;;;;;;;24.00;38.14;95666.22;6017382;28;109032;-55
2023/10/04 11:34:49;;;;;;;16.80;15.30;;;;;;;23.97;38.46;95659.56;6017187;29;109090;-57
2023/10/04 11:37:52;;;;;;;16.50;15.00;;;;;;;23.97;38.13;95658.78;6007830;28;108925;-57
2023/10/04 11:40:57;;;;;;;16.40;14.80;;;;;;;23.96;38.13;95654.53;6018216;28;108970;-57
2023/10/04 11:44:03;;;;;;;16.15;14.75;;;;;;;23.94;38.55;95654.84;6018434;29;108997;-57
2023/10/04 11:47:09;;;;;;;15.68;14.27;;;;;;;23.91;38.46;95642.09;6018596;29;108837;-57
2023/10/04 11:50:13;;;;;;;15.75;14.35;;;;;;;23.90;38.43;95635.16;6007868;28;108881;-58
2023/10/04 11:53:30;;;;;;;16.07;14.57;;;;;;;23.86;38.46;95639.53;6018005;29;108976;-57
2023/10/04 11:56:41;;;;;;;15.55;14.15;;;;;;;23.87;38.50;95631.22;6018047;28;108991;-57
2023/10/04 11:59:45;;;;;;;15.70;14.30;;;;;;;23.86;38.32;95634.19;6013169;28;108982;-57
2023/10/04 12:02:49;;;;;;;15.35;14.05;;;;;;;23.84;38.41;95634.47;6012181;28;109331;-57
2023/10/04 12:05:56;;;;;;;15.13;13.73;;;;;;;23.82;38.51;95623.28;6017378;28;124031;-57
2023/10/04 12:09:04;;;;;;;14.55;13.25;;;;;;;23.79;38.84;95626.56;6018108;29;109013;-57
2023/10/04 12:12:09;;;;;;;14.70;13.40;;;;;;;23.81;38.56;95620.91;6007162;28;109283;-59
2023/10/04 12:15:14;;;;;;;15.23;13.82;;;;;;;23.79;38.42;95617.75;6001293;29;109206;-58
2023/10/04 12:18:17;;;;;;;14.80;13.50;;;;;;;23.77;38.41;95614.59;6017463;28;108951;-58
2023/10/04 12:21:20;;;;;;;15.13;13.63;;;;;;;23.77;38.41;95610.06;6017600;29;108950;-57
2023/10/04 12:24:23;;;;;;;14.90;13.60;;;;;;;23.77;38.75;95602.03;6006577;28;109987;-57
2023/10/04 12:27:28;;;;;;;14.57;13.18;;;;;;;23.73;38.33;95606.41;5994303;29;108897;-58
2023/10/04 12:30:31;;;;;;;15.57;14.18;;;;;;;23.73;38.33;95603.75;6002672;29;108891;-58
2023/10/04 12:33:35;;;;;;;15.00;13.60;;;;;;;23.73;38.81;95610.97;6015617;28;109941;-58
2023/10/04 12:36:39;;;;;;;15.20;13.80;;;;;;;23.73;38.55;95595.72;6006718;29;109006;-58
2023/10/04 12:39:57;;;;;;;14.90;13.50;;;;;;;23.72;38.69;95602.16;6017243;28;108808;-58
2023/10/04 12:43:02;;;;;;;14.23;13.03;;;;;;;23.72;38.28;95599.50;6017391;29;108974;-58
2023/10/04 12:46:05;;;;;;;14.50;13.20;;;;;;;23.70;38.53;95600.88;6006189;29;108878;-58
2023/10/04 12:49:08;;;;;;;13.20;12.00;;;;;;;23.69;38.50;95597.44;6016975;29;109033;-58
2023/10/04 12:52:12;;;;;;;13.98;12.73;;;;;;;23.69;38.43;95607.28;6017009;29;109037;-57
2023/10/04 12:55:15;;;;;;;14.00;12.80;;;;;;;23.70;38.71;95603.56;6016773;28;109009;-57
2023/10/04 12:58:20;;;;;;;13.85;12.60;;;;;;;23.69;38.74;95602.78;6007312;28;109976;-58
2023/10/04 13:01:24;;;;;;;13.63;12.33;;;;;;;23.69;38.45;95596.59;6016718;29;108920;-58
2023/10/04 13:04:27;;;;;;;14.75;13.35;;;;;;;23.66;38.96;95590.00;6015802;28;108925;-58
2023/10/04 13:07:32;;;;;;;13.90;12.60;;;;;;;23.64;39.04;95584.16;6016671;29;109191;-58
2023/10/04 13:10:36;;;;;;;13.80;12.50;;;;;;;23.65;38.78;95583.06;6005707;28;108950;-58
2023/10/04 13:13:42;;;;;;;13.07;11.90;;;;;;;23.68;38.88;95579.00;6016543;28;108988;-58
2023/10/04 13:16:46;;;;;;;14.30;13.00;;;;;;;23.65;39.01;95580.41;6016504;29;108885;-58
2023/10/04 13:19:49;;;;;;;13.07;11.88;;;;;;;23.65;38.54;95579.59;6009385;29;108955;-59
2023/10/04 13:22:53;;;;;;;12.77;11.67;;;;;;;23.62;38.54;95578.34;6014008;28;108990;-58
2023/10/04 13:25:56;;;;;;;12.82;11.57;;;;;;;23.64;38.89;95573.47;6016488;29;108889;-58
2023/10/04 13:29:02;;;;;;;12.50;11.40;;;;;;;23.66;39.05;95578.50;6016159;28;108893;-58
2023/10/04 13:32:07;;;;;;;13.40;12.20;;;;;;;23.64;38.43;95576.16;6005085;29;108930;-58
2023/10/04 13:35:10;;;;;;;13.07;11.95;;;;;;;23.63;38.91;95579.91;6014701;29;109115;-58
2023/10/04 13:38:17;;;;;;;12.80;11.70;;;;;;;23.61;38.67;95574.09;6016249;29;108890;-58
2023/10/04 13:41:22;;;;;;;12.77;11.57;;;;;;;23.60;38.46;95570.63;6016186;29;108922;-58
2023/10/04 13:44:26;;;;;;;13.10;11.90;;;;;;;23.62;38.97;95566.84;6005693;29;108914;-57
2023/10/04 13:47:29;;;;;;;13.00;11.80;;;;;;;23.60;38.91;95562.59;6016016;29;109066;-58
2023/10/04 13:50:33;;;;;;;13.00;11.80;;;;;;;23.60;38.71;95565.28;6015566;28;108991;-57
2023/10/04 13:53:37;;;;;;;12.50;11.40;;;;;;;23.59;39.03;95561.03;6010894;28;108927;-58
2023/10/04 13:56:42;;;;;;;12.70;11.60;;;;;;;23.60;38.91;95561.81;6010312;28;108973;-57
2023/10/04 13:59:46;;;;;;;12.82;11.63;;;;;;;23.60;38.72;95561.81;6015523;28;108894;-57
2023/10/04 14:02:49;;;;;;;12.32;11.13;;;;;;;23.58;38.91;95556.00;6015798;29;108991;-60